createdAt,value
2023-04-24T00:02:14.127Z,85709.28
2023-04-24T00:04:42.531Z,85692.81
2023-04-24T00:07:10.021Z,85714.09
2023-04-24T00:09:37.205Z,85688.69
2023-04-24T00:12:07.191Z,85718.91
2023-04-24T00:14:34.326Z,85740.91
2023-04-24T00:17:01.529Z,85707.22
2023-04-24T00:19:29.667Z,85747.09
2023-04-24T00:21:56.720Z,85706.53
2023-04-24T00:24:23.687Z,85668.06
2023-04-24T00:26:50.619Z,85714.78
2023-04-24T00:29:17.749Z,85705.16
2023-04-24T00:31:44.830Z,85691.44
2023-04-24T00:34:12.905Z,85698.28
2023-04-24T00:36:39.849Z,85655.72
2023-04-24T00:39:06.907Z,85742.28
2023-04-24T00:41:34.000Z,85722.34
2023-04-24T00:44:00.995Z,85688.69
2023-04-24T00:46:28.086Z,85724.41
2023-04-24T00:48:56.884Z,85709.28
2023-04-24T00:51:25.773Z,85725.78
2023-04-24T00:53:53.311Z,85704.47
2023-04-24T00:56:21.112Z,85630.97
2023-04-24T00:58:49.059Z,85661.22
2023-04-24T01:01:16.212Z,85693.50
2023-04-24T01:03:44.132Z,85724.41
2023-04-24T01:06:11.832Z,85663.25
2023-04-24T01:08:40.960Z,85723.03
2023-04-24T01:11:08.217Z,85719.59
2023-04-24T01:13:35.874Z,85701.06
2023-04-24T01:16:03.891Z,85658.44
2023-04-24T01:18:31.084Z,85712.72
2023-04-24T01:21:00.091Z,85707.94
2023-04-24T01:23:27.598Z,85692.81
2023-04-24T01:25:54.894Z,85622.72
2023-04-24T01:28:22.843Z,85676.31
2023-04-24T01:30:50.032Z,85703.13
2023-04-24T01:33:17.081Z,85661.84
2023-04-24T01:35:44.421Z,85706.56
2023-04-24T01:38:11.910Z,85700.34
2023-04-24T01:40:39.214Z,85681.13
2023-04-24T01:43:06.648Z,85687.28
2023-04-24T01:45:33.861Z,85657.03
2023-04-24T01:48:01.683Z,85699.66
2023-04-24T01:50:29.321Z,85670.78
2023-04-24T01:52:56.624Z,85685.22
2023-04-24T01:55:23.614Z,85612.38
2023-04-24T01:57:51.813Z,85663.91
2023-04-24T02:00:19.735Z,85692.06
2023-04-24T02:02:48.407Z,85673.50
2023-04-24T02:05:16.349Z,85562.22
2023-04-24T02:07:43.453Z,85677.63
2023-04-24T02:10:11.271Z,85690.00
2023-04-24T02:12:42.929Z,85621.97
2023-04-24T02:15:10.490Z,85608.94
2023-04-24T02:17:38.316Z,85578.03
2023-04-24T02:20:07.722Z,85668.03
2023-04-24T02:22:34.759Z,85575.97
2023-04-24T02:25:03.126Z,85652.19
2023-04-24T02:27:30.436Z,85580.03
2023-04-24T02:29:57.723Z,85690.66
2023-04-24T02:32:24.888Z,85653.56
2023-04-24T02:34:52.217Z,85685.84
2023-04-24T02:37:19.400Z,85640.47
2023-04-24T02:39:46.445Z,85642.53
2023-04-24T02:42:13.526Z,85571.66
2023-04-24T02:44:40.538Z,85634.97
2023-04-24T02:47:08.728Z,85657.00
2023-04-24T02:49:35.744Z,85642.56
2023-04-24T02:52:02.733Z,85641.81
2023-04-24T02:54:29.932Z,85631.50
2023-04-24T02:56:57.987Z,85607.47
2023-04-24T02:59:25.984Z,85683.06
2023-04-24T03:01:52.938Z,85691.28
2023-04-24T03:04:21.505Z,85672.03
2023-04-24T03:06:49.084Z,85636.28
2023-04-24T03:09:16.177Z,85678.91
2023-04-24T03:11:43.228Z,85676.16
2023-04-24T03:14:10.345Z,85646.63
2023-04-24T03:16:39.640Z,85621.91
2023-04-24T03:19:07.574Z,85643.19
2023-04-24T03:21:44.024Z,85679.63
2023-04-24T03:24:11.553Z,85623.97
2023-04-24T03:26:38.800Z,85617.16
2023-04-24T03:29:18.498Z,85635.66
2023-04-24T03:31:45.918Z,85570.44
2023-04-24T03:34:13.062Z,85689.97
2023-04-24T03:36:40.183Z,85577.25
2023-04-24T03:39:08.897Z,85607.50
2023-04-24T03:41:37.804Z,85652.88
2023-04-24T03:44:10.933Z,85684.50
2023-04-24T03:46:38.294Z,85608.22
2023-04-24T03:49:05.362Z,85610.31
2023-04-24T03:51:36.561Z,85652.91
2023-04-24T03:54:23.881Z,85676.91
2023-04-24T03:56:52.510Z,85595.88
2023-04-24T03:59:19.815Z,85654.94
2023-04-24T04:01:53.444Z,85662.50
2023-04-24T04:04:21.502Z,85591.06
2023-04-24T04:06:49.134Z,85570.50
2023-04-24T04:09:16.702Z,85626.81
2023-04-24T04:11:43.896Z,85625.41
2023-04-24T04:14:12.830Z,85659.75
2023-04-24T04:16:42.513Z,85647.38
2023-04-24T04:19:10.452Z,85641.88
2023-04-24T04:21:37.568Z,85701.00
2023-04-24T04:24:23.909Z,85679.00
2023-04-24T04:26:53.402Z,85655.63
2023-04-24T04:29:27.106Z,85698.25
2023-04-24T04:31:54.305Z,85661.88
2023-04-24T04:34:22.329Z,85639.84
2023-04-24T04:36:50.230Z,85696.22
2023-04-24T04:39:37.435Z,85695.56
2023-04-24T04:42:11.690Z,85646.06
2023-04-24T04:44:44.062Z,85648.81
2023-04-24T04:47:17.361Z,85687.31
2023-04-24T04:49:45.228Z,85699.66
2023-04-24T04:52:26.068Z,85674.94
2023-04-24T04:54:58.778Z,85677.66
2023-04-24T04:57:37.010Z,85652.25
2023-04-24T05:00:08.095Z,85622.75
2023-04-24T05:02:44.226Z,85701.69
2023-04-24T05:05:11.898Z,85665.97
2023-04-24T05:07:39.083Z,85641.94
2023-04-24T05:10:06.754Z,85674.19
2023-04-24T05:12:33.770Z,85600.72
2023-04-24T05:15:02.805Z,85646.03
2023-04-24T05:17:30.351Z,85652.84
2023-04-24T05:19:58.730Z,85698.13
2023-04-24T05:22:27.994Z,85580.06
2023-04-24T05:24:57.744Z,85696.00
2023-04-24T05:27:34.685Z,85660.31
2023-04-24T05:30:04.497Z,85657.53
2023-04-24T05:32:31.657Z,85685.63
2023-04-24T05:34:58.672Z,85676.69
2023-04-24T05:37:26.982Z,85648.56
2023-04-24T05:39:56.719Z,85681.44
2023-04-24T05:42:24.025Z,85657.44
2023-04-24T05:44:52.809Z,85651.25
2023-04-24T05:47:22.801Z,85630.63
2023-04-24T05:49:51.052Z,85665.56
2023-04-24T05:52:18.114Z,85634.72
2023-04-24T05:54:45.554Z,85666.25
2023-04-24T05:57:16.085Z,85643.56
2023-04-24T05:59:54.902Z,85630.50
2023-04-24T06:02:23.337Z,85703.19
2023-04-24T06:04:50.981Z,85703.06
2023-04-24T06:07:18.524Z,85707.91
2023-04-24T06:09:45.936Z,85679.06
2023-04-24T06:12:13.148Z,85700.22
2023-04-24T06:15:10.003Z,85697.47
2023-04-24T06:17:57.811Z,85658.94
2023-04-24T06:20:25.661Z,85616.47
2023-04-24T06:22:52.733Z,85695.25
2023-04-24T06:25:20.445Z,85689.03
2023-04-24T06:27:47.865Z,85569.66
2023-04-24T06:30:15.009Z,85681.28
2023-04-24T06:32:42.178Z,85691.63
2023-04-24T06:35:10.937Z,85622.97
2023-04-24T06:37:40.162Z,85631.09
2023-04-24T06:40:08.739Z,85685.88
2023-04-24T06:42:36.565Z,85676.13
2023-04-24T06:45:05.099Z,85608.94
2023-04-24T06:47:32.457Z,85621.22
2023-04-24T06:49:59.884Z,85680.06
2023-04-24T06:52:26.986Z,85663.44
2023-04-24T06:54:53.975Z,85663.44
2023-04-24T06:57:21.049Z,85636.66
2023-04-24T06:59:48.088Z,85592.03
2023-04-24T07:02:15.205Z,85676.94
2023-04-24T07:04:42.912Z,85674.13
2023-04-24T07:07:14.199Z,85674.13
2023-04-24T07:09:45.733Z,85687.78
2023-04-24T07:12:13.475Z,85624.66
2023-04-24T07:14:41.237Z,85665.06
2023-04-24T07:17:08.353Z,85686.03
2023-04-24T07:19:36.663Z,85686.69
2023-04-24T07:22:04.545Z,85508.06
2023-04-24T07:24:33.393Z,85637.22
2023-04-24T07:27:02.175Z,85662.41
2023-04-24T07:29:29.234Z,85663.88
2023-04-24T07:31:57.676Z,85686.31
2023-04-24T07:34:25.112Z,85647.31
2023-04-24T07:36:52.345Z,85688.22
2023-04-24T07:39:20.114Z,85656.75
2023-04-24T07:41:47.118Z,85664.81
2023-04-24T07:44:14.325Z,85682.56
2023-04-24T07:46:41.802Z,85665.41
2023-04-24T07:49:13.654Z,85655.81
2023-04-24T07:51:41.462Z,85655.03
2023-04-24T07:54:08.535Z,85598.91
2023-04-24T07:56:37.261Z,85686.34
2023-04-24T07:59:07.313Z,85676.66
2023-04-24T08:01:34.438Z,85690.28
2023-04-24T08:04:01.867Z,85685.34
2023-04-24T08:06:31.635Z,85644.88
2023-04-24T08:08:59.633Z,85687.25
2023-04-24T08:11:27.416Z,85669.41
2023-04-24T08:13:55.817Z,85635.16
2023-04-24T08:16:25.300Z,85671.41
2023-04-24T08:18:52.989Z,85678.66
2023-04-24T08:21:21.810Z,85689.53
2023-04-24T08:23:48.916Z,85686.66
2023-04-24T08:26:16.053Z,85656.56
2023-04-24T08:28:44.118Z,85679.53
2023-04-24T08:31:11.387Z,85660.50
2023-04-24T08:33:38.532Z,85686.19
2023-04-24T08:36:06.680Z,85684.03
2023-04-24T08:38:34.242Z,85660.03
2023-04-24T08:41:02.353Z,85683.84
2023-04-24T08:43:29.586Z,85679.63
2023-04-24T08:45:58.256Z,85673.53
2023-04-24T08:48:30.827Z,85618.88
2023-04-24T08:51:00.241Z,85659.63
2023-04-24T08:53:28.058Z,85674.41
2023-04-24T08:55:56.750Z,85630.63
2023-04-24T08:58:26.434Z,85646.97
2023-04-24T09:00:56.640Z,85674.16
2023-04-24T09:03:24.647Z,85639.94
2023-04-24T09:05:53.649Z,85643.88
2023-04-24T09:08:21.021Z,85676.50
2023-04-24T09:10:50.573Z,85621.56
2023-04-24T09:13:20.736Z,85674.69
2023-04-24T09:15:48.501Z,85638.41
2023-04-24T09:18:15.680Z,85643.19
2023-04-24T09:21:02.543Z,85673.00
2023-04-24T09:23:31.410Z,85609.06
2023-04-24T09:26:06.188Z,85672.22
2023-04-24T09:28:36.013Z,85670.59
2023-04-24T09:31:06.896Z,85665.66
2023-04-24T09:33:34.508Z,85604.44
2023-04-24T09:36:01.867Z,85582.75
2023-04-24T09:38:47.555Z,85599.34
2023-04-24T09:41:15.209Z,85656.22
2023-04-24T09:43:42.287Z,85601.41
2023-04-24T09:46:11.310Z,85623.53
2023-04-24T09:48:38.964Z,85659.00
2023-04-24T09:51:13.565Z,85644.03
2023-04-24T09:53:41.245Z,85618.38
2023-04-24T09:56:14.118Z,85646.41
2023-04-24T09:58:41.402Z,85648.03
2023-04-24T10:01:08.659Z,85590.22
2023-04-24T10:03:43.201Z,85631.16
2023-04-24T10:06:14.702Z,85610.00
2023-04-24T10:08:41.785Z,85620.91
2023-04-24T10:11:09.537Z,85555.19
2023-04-24T10:13:37.326Z,85588.28
2023-04-24T10:16:05.227Z,85636.28
2023-04-24T10:18:33.466Z,85626.63
2023-04-24T10:21:01.350Z,85551.88
2023-04-24T10:23:29.569Z,85636.91
2023-04-24T10:25:57.429Z,85623.31
2023-04-24T10:28:26.181Z,85606.16
2023-04-24T10:30:56.424Z,85627.09
2023-04-24T10:33:24.669Z,85629.56
2023-04-24T10:35:52.979Z,85578.31
2023-04-24T10:38:26.160Z,85611.31
2023-04-24T10:40:58.313Z,85595.72
2023-04-24T10:43:25.508Z,85626.31
2023-04-24T10:46:06.743Z,85624.16
2023-04-24T10:48:34.914Z,85625.44
2023-04-24T10:51:02.883Z,85623.22
2023-04-24T10:53:31.548Z,85615.53
2023-04-24T10:56:10.922Z,85585.41
2023-04-24T10:58:41.269Z,85599.66
2023-04-24T11:01:08.667Z,85619.78
2023-04-24T11:03:37.708Z,85575.56
2023-04-24T11:06:11.320Z,85619.88
2023-04-24T11:08:40.085Z,85611.06
2023-04-24T11:11:16.015Z,85602.59
2023-04-24T11:13:55.752Z,85610.03
2023-04-24T11:16:39.614Z,85557.75
2023-04-24T11:19:16.397Z,85617.78
2023-04-24T11:21:48.418Z,85616.66
2023-04-24T11:24:53.507Z,85610.59
2023-04-24T11:27:31.596Z,85572.09
2023-04-24T11:29:59.069Z,85582.06
2023-04-24T11:32:29.977Z,85554.72
2023-04-24T11:35:02.417Z,85602.63
2023-04-24T11:37:41.018Z,85597.50
2023-04-24T11:40:18.792Z,85588.81
2023-04-24T11:42:47.191Z,85578.56
2023-04-24T11:45:16.495Z,85599.19
2023-04-24T11:47:44.324Z,85600.38
2023-04-24T11:50:16.581Z,85545.56
2023-04-24T11:52:48.235Z,85547.31
2023-04-24T11:55:15.272Z,85582.72
2023-04-24T11:57:46.469Z,85503.88
2023-04-24T12:00:25.224Z,85575.91
2023-04-24T12:02:53.352Z,85541.75
2023-04-24T12:05:22.675Z,85549.53
2023-04-24T12:07:50.691Z,85537.22
2023-04-24T12:10:25.674Z,85559.25
2023-04-24T12:12:54.146Z,85568.78
2023-04-24T12:15:22.399Z,85553.94
2023-04-24T12:17:52.462Z,85495.88
2023-04-24T12:20:29.069Z,85528.31
2023-04-24T12:22:58.520Z,85506.09
2023-04-24T12:25:28.747Z,85508.50
2023-04-24T12:28:12.040Z,85489.84
2023-04-24T12:30:49.625Z,85551.13
2023-04-24T12:33:21.241Z,85527.91
2023-04-24T12:35:50.085Z,85479.00
2023-04-24T12:38:17.347Z,85476.97
2023-04-24T12:40:44.952Z,85538.78
2023-04-24T12:43:19.698Z,85512.28
2023-04-24T12:45:48.623Z,85518.34
2023-04-24T12:48:15.807Z,85456.63
2023-04-24T12:50:46.353Z,85534.06
2023-04-24T12:53:15.128Z,85517.34
2023-04-24T12:55:42.304Z,85486.34
2023-04-24T12:58:09.525Z,85536.13
2023-04-24T13:00:37.011Z,85531.09
2023-04-24T13:03:04.703Z,85528.31
2023-04-24T13:05:31.921Z,85506.06
2023-04-24T13:07:59.429Z,85531.50
2023-04-24T13:10:26.429Z,85475.47
2023-04-24T13:12:53.597Z,85502.53
2023-04-24T13:15:21.267Z,85532.78
2023-04-24T13:17:48.413Z,85504.03
2023-04-24T13:20:16.742Z,85504.75
2023-04-24T13:22:43.732Z,85489.59
2023-04-24T13:25:11.400Z,85478.56
2023-04-24T13:27:41.335Z,85509.03
2023-04-24T13:30:09.160Z,85473.81
2023-04-24T13:32:36.643Z,85498.81
2023-04-24T13:35:03.901Z,85501.84
2023-04-24T13:37:31.170Z,85468.63
2023-04-24T13:39:58.119Z,85501.03
2023-04-24T13:42:25.169Z,85460.53
2023-04-24T13:44:52.360Z,85499.41
2023-04-24T13:47:19.390Z,85422.75
2023-04-24T13:49:46.390Z,85481.00
2023-04-24T13:52:13.425Z,85505.00
2023-04-24T13:54:40.533Z,85511.81
2023-04-24T13:57:07.468Z,85508.34
2023-04-24T13:59:36.904Z,85463.72
2023-04-24T14:02:03.944Z,85465.56
2023-04-24T14:04:31.438Z,85429.59
2023-04-24T14:06:58.467Z,85476.22
2023-04-24T14:09:25.439Z,85497.50
2023-04-24T14:11:53.357Z,85469.78
2023-04-24T14:14:20.347Z,85467.19
2023-04-24T14:16:47.390Z,85488.69
2023-04-24T14:19:14.438Z,85464.22
2023-04-24T14:21:41.374Z,85504.31
2023-04-24T14:24:09.644Z,85444.41
2023-04-24T14:26:36.921Z,85435.66
2023-04-24T14:29:14.235Z,85495.28
2023-04-24T14:31:42.581Z,85492.19
2023-04-24T14:34:10.391Z,85418.22
2023-04-24T14:36:38.712Z,85446.47
2023-04-24T14:39:08.061Z,85389.59
2023-04-24T14:41:38.687Z,85474.09
2023-04-24T14:44:06.378Z,85444.06
2023-04-24T14:46:33.503Z,85477.56
2023-04-24T14:49:00.659Z,85459.63
2023-04-24T14:51:28.188Z,85481.00
2023-04-24T14:53:55.520Z,85436.03
2023-04-24T14:56:22.494Z,85423.81
2023-04-24T14:58:49.642Z,85463.47
2023-04-24T15:01:17.809Z,85452.16
2023-04-24T15:03:45.904Z,85448.03
2023-04-24T15:06:13.577Z,85477.94
2023-04-24T15:08:40.527Z,85465.75
2023-04-24T15:11:10.431Z,85426.00
2023-04-24T15:13:38.561Z,85442.44
2023-04-24T15:16:06.575Z,85478.41
2023-04-24T15:18:33.530Z,85436.63
2023-04-24T15:21:00.557Z,85471.78
2023-04-24T15:23:27.530Z,85465.56
2023-04-24T15:25:54.532Z,85457.91
2023-04-24T15:28:22.875Z,85462.97
2023-04-24T15:30:50.025Z,85433.56
2023-04-24T15:33:17.230Z,85446.06
2023-04-24T15:35:44.325Z,85465.38
2023-04-24T15:38:11.304Z,85441.31
2023-04-24T15:40:38.423Z,85463.75
2023-04-24T15:43:05.547Z,85462.16
2023-04-24T15:45:34.125Z,85419.44
2023-04-24T15:48:01.833Z,85410.47
2023-04-24T15:50:29.377Z,85443.25
2023-04-24T15:52:56.410Z,85449.59
2023-04-24T15:55:23.548Z,85437.72
2023-04-24T15:57:50.569Z,85382.50
2023-04-24T16:00:18.463Z,85451.03
2023-04-24T16:02:58.032Z,85420.81
2023-04-24T16:05:25.290Z,85409.19
2023-04-24T16:07:52.401Z,85407.47
2023-04-24T16:10:19.534Z,85441.03
2023-04-24T16:12:51.730Z,85400.44
2023-04-24T16:15:19.695Z,85430.16
2023-04-24T16:17:47.311Z,85422.69
2023-04-24T16:20:15.345Z,85413.81
2023-04-24T16:22:42.888Z,85432.97
2023-04-24T16:25:10.977Z,85393.31
2023-04-24T16:27:38.837Z,85429.41
2023-04-24T16:30:07.244Z,85436.13
2023-04-24T16:32:34.860Z,85436.72
2023-04-24T16:35:02.458Z,85435.72
2023-04-24T16:37:30.929Z,85441.16
2023-04-24T16:39:58.487Z,85435.72
2023-04-24T16:42:26.742Z,85401.34
2023-04-24T16:44:54.245Z,85439.03
2023-04-24T16:47:22.163Z,85410.22
2023-04-24T16:49:50.353Z,85391.63
2023-04-24T16:52:17.836Z,85414.75
2023-04-24T16:54:45.206Z,85408.75
2023-04-24T16:57:12.824Z,85403.34
2023-04-24T16:59:40.302Z,85428.25
2023-04-24T17:02:10.328Z,85433.69
2023-04-24T17:04:37.952Z,85426.19
2023-04-24T17:07:05.687Z,85346.09
2023-04-24T17:09:33.398Z,85398.34
2023-04-24T17:12:02.548Z,85381.72
2023-04-24T17:14:30.314Z,85379.91
2023-04-24T17:16:58.029Z,85396.53
2023-04-24T17:19:26.654Z,85346.34
2023-04-24T17:21:58.109Z,85334.53
2023-04-24T17:24:25.735Z,85386.78
2023-04-24T17:26:56.409Z,85405.84
2023-04-24T17:29:26.542Z,85384.28
2023-04-24T17:31:54.172Z,85420.28
2023-04-24T17:34:21.883Z,85378.88
2023-04-24T17:36:49.303Z,85367.97
2023-04-24T17:39:17.284Z,85382.47
2023-04-24T17:41:44.639Z,85399.09
2023-04-24T17:44:11.856Z,85405.75
2023-04-24T17:46:38.925Z,85434.38
2023-04-24T17:49:06.057Z,85443.97
2023-04-24T17:51:33.018Z,85445.94
2023-04-24T17:54:00.048Z,85431.53
2023-04-24T17:56:27.136Z,85407.22
2023-04-24T17:58:54.273Z,85458.63
2023-04-24T18:01:21.879Z,85471.44
2023-04-24T18:03:49.095Z,85422.88
2023-04-24T18:06:17.766Z,85430.34
2023-04-24T18:08:44.833Z,85428.81
2023-04-24T18:11:11.858Z,85464.25
2023-04-24T18:13:41.408Z,85425.38
2023-04-24T18:16:08.399Z,85461.50
2023-04-24T18:18:35.652Z,85482.69
2023-04-24T18:21:02.700Z,85464.34
2023-04-24T18:23:30.733Z,85476.03
2023-04-24T18:25:57.672Z,85492.91
2023-04-24T18:28:24.661Z,85481.81
2023-04-24T18:30:51.800Z,85483.94
2023-04-24T18:33:19.149Z,85495.72
2023-04-24T18:35:46.118Z,85474.81
2023-04-24T18:38:13.079Z,85456.66
2023-04-24T18:40:40.137Z,85419.38
2023-04-24T18:43:07.260Z,85434.94
2023-04-24T18:45:34.294Z,85441.09
2023-04-24T18:48:01.473Z,85465.66
2023-04-24T18:50:31.764Z,85486.19
2023-04-24T18:52:59.248Z,85480.44
2023-04-24T18:55:26.203Z,85462.53
2023-04-24T18:57:53.163Z,85470.19
2023-04-24T19:00:20.302Z,85479.16
2023-04-24T19:02:47.570Z,85359.22
2023-04-24T19:05:14.724Z,85483.25
2023-04-24T19:07:42.435Z,85459.03
2023-04-24T19:10:10.285Z,85489.78
2023-04-24T19:12:37.520Z,85465.03
2023-04-24T19:15:05.357Z,85461.72
2023-04-24T19:17:32.765Z,85442.69
2023-04-24T19:19:59.802Z,85431.81
2023-04-24T19:22:29.122Z,85442.72
2023-04-24T19:24:58.641Z,85370.47
2023-04-24T19:27:25.687Z,85450.94
2023-04-24T19:29:52.748Z,85469.03
2023-04-24T19:32:20.147Z,85401.00
2023-04-24T19:34:47.260Z,85419.22
2023-04-24T19:37:14.591Z,85447.16
2023-04-24T19:39:41.702Z,85487.75
2023-04-24T19:42:08.811Z,85362.63
2023-04-24T19:44:36.084Z,85451.25
2023-04-24T19:47:03.295Z,85474.09
2023-04-24T19:49:31.194Z,85433.91
2023-04-24T19:51:58.274Z,85426.34
2023-04-24T19:54:25.940Z,85458.47
2023-04-24T19:56:53.037Z,85444.13
2023-04-24T19:59:20.050Z,85472.97
2023-04-24T20:01:47.279Z,85415.56
2023-04-24T20:04:14.592Z,85459.13
2023-04-24T20:06:41.838Z,85398.41
2023-04-24T20:09:08.896Z,85442.78
2023-04-24T20:11:36.223Z,85459.09
2023-04-24T20:14:03.952Z,85460.56
2023-04-24T20:16:31.591Z,85365.28
2023-04-24T20:18:59.445Z,85435.38
2023-04-24T20:21:26.971Z,85445.94
2023-04-24T20:23:54.224Z,85419.28
2023-04-24T20:26:21.719Z,85379.00
2023-04-24T20:28:49.224Z,85423.13
2023-04-24T20:31:16.729Z,85463.31
2023-04-24T20:33:45.716Z,85448.44
2023-04-24T20:36:15.750Z,85410.34
2023-04-24T20:38:42.963Z,85470.66
2023-04-24T20:41:10.576Z,85380.63
2023-04-24T20:43:37.831Z,85412.47
2023-04-24T20:46:05.645Z,85409.25
2023-04-24T20:48:32.816Z,85412.38
2023-04-24T20:51:02.269Z,85470.03
2023-04-24T20:53:29.410Z,85389.88
2023-04-24T20:55:56.409Z,85466.41
2023-04-24T20:58:24.250Z,85450.69
2023-04-24T21:00:52.023Z,85459.59
2023-04-24T21:03:20.041Z,85459.56
2023-04-24T21:05:47.281Z,85395.69
2023-04-24T21:08:14.644Z,85400.09
2023-04-24T21:10:41.961Z,85375.38
2023-04-24T21:13:09.240Z,85337.19
2023-04-24T21:15:36.318Z,85413.75
2023-04-24T21:18:04.368Z,85435.38
2023-04-24T21:20:31.500Z,85399.31
2023-04-24T21:22:58.500Z,85393.06
2023-04-24T21:25:26.331Z,85443.56
2023-04-24T21:27:53.998Z,85418.19
2023-04-24T21:30:22.269Z,85425.59
2023-04-24T21:32:49.509Z,85366.66
2023-04-24T21:35:16.688Z,85381.78
2023-04-24T21:37:43.896Z,85346.94
2023-04-24T21:40:16.029Z,85362.53
2023-04-24T21:42:44.766Z,85441.66
2023-04-24T21:45:12.196Z,85432.09
2023-04-24T21:47:39.384Z,85362.00
2023-04-24T21:50:07.011Z,85376.38
2023-04-24T21:52:34.097Z,85453.00
2023-04-24T21:55:01.394Z,85444.38
2023-04-24T21:57:29.694Z,85350.00
2023-04-24T21:59:56.877Z,85414.22
2023-04-24T22:02:24.044Z,85380.06
2023-04-24T22:04:52.144Z,85406.88
2023-04-24T22:07:19.342Z,85462.00
2023-04-24T22:09:46.442Z,85380.66
2023-04-24T22:12:13.558Z,85401.31
2023-04-24T22:14:40.797Z,85432.91
2023-04-24T22:17:09.705Z,85406.94
2023-04-24T22:19:36.841Z,85411.84
2023-04-24T22:22:04.106Z,85213.97
2023-04-24T22:24:31.884Z,85429.13
2023-04-24T22:26:59.211Z,85400.06
2023-04-24T22:29:26.581Z,85426.66
2023-04-24T22:31:56.445Z,85378.84
2023-04-24T22:34:23.644Z,85332.25
2023-04-24T22:36:50.813Z,85428.03
2023-04-24T22:39:18.019Z,85406.13
2023-04-24T22:41:45.223Z,85185.00
2023-04-24T22:44:12.186Z,85343.34
2023-04-24T22:46:39.335Z,85360.97
2023-04-24T22:49:06.381Z,85399.91
2023-04-24T22:51:33.740Z,85313.13
2023-04-24T22:54:05.355Z,85401.25
2023-04-24T22:56:32.653Z,85347.59
2023-04-24T22:58:59.700Z,85402.09
2023-04-24T23:01:30.209Z,85361.13
2023-04-24T23:03:57.372Z,85399.53
2023-04-24T23:06:24.532Z,85342.31
2023-04-24T23:08:51.757Z,85364.97
2023-04-24T23:11:20.081Z,85360.28
2023-04-24T23:13:47.350Z,85336.81
2023-04-24T23:16:14.488Z,85261.63
2023-04-24T23:18:41.532Z,85286.19
2023-04-24T23:21:12.448Z,85291.47
2023-04-24T23:23:39.770Z,85349.28
2023-04-24T23:26:06.847Z,85292.66
2023-04-24T23:28:33.934Z,85295.34
2023-04-24T23:31:00.958Z,85265.28
2023-04-24T23:33:28.693Z,85280.78
2023-04-24T23:35:56.137Z,85294.31
2023-04-24T23:38:23.128Z,85277.84
2023-04-24T23:40:52.155Z,85252.47
2023-04-24T23:43:19.170Z,85312.44
2023-04-24T23:45:46.230Z,85268.69
2023-04-24T23:48:13.364Z,85209.31
2023-04-24T23:50:40.742Z,85221.63
2023-04-24T23:53:08.026Z,85275.34
2023-04-24T23:55:35.574Z,85242.38
2023-04-24T23:58:02.682Z,85285.91
